Impacts METAR Board
IDs:

KEWR - Newark Intl, NJ, US

Updated at: 2200 UTC 23 May 2018
Potential Impact None Slight Moderate High
Time 23/10Z 23/11Z 23/12Z 23/13Z 23/14Z 23/15Z 23/16Z 23/17Z 23/18Z 23/19Z 23/20Z 23/21Z 23/22Z
Temp60 61 62 66 72 74 74 77 78 79 81 81 82
Dewpt59 60 62 62 64 63 58 59 58 56 53 52 51
Altim29.89 29.91 29.91 29.92 29.92 29.93 29.94 29.95 29.94 29.94 29.94 29.93 29.93
VIS7 9 7 10 10 10 10 10 10 10 10 10 10
CIG90 150 38 40 100 60 39 38 -- -- -- -- --
CoverBKNBKNBKNBKNBKNBKNBKNBKNSCTSCTSCTSCTSCT
FltCatVFRVFRVFRVFRVFRVFRVFRVFRVFRVFRVFRVFRVFR
WX--------------------------
WDir02400260300340320310320330320320320
WSpd0 5 0 7 9 13 15 11 7 4 14 11 9
WGst-- -- -- -- -- -- 21 17 19 -- 22 19 17
Raw hourly METARs
KEWR 231005Z 00000KT 7SM FEW004 SCT009 BKN090 BKN180 BKN250 16/15 A2989 RMK AO2 RAE05 P0000 T01560150
KEWR 231051Z 24005KT 9SM FEW004 FEW009 SCT050 BKN150 BKN250 16/16 A2991 RMK AO2 RAE05 SLP127 P0000 T01610156
KEWR 231151Z 00000KT 7SM FEW006 BKN038 BKN100 BKN250 17/17 A2991 RMK AO2 SLP129 60024 70043 T01670167 10167 20144 53005
KEWR 231251Z 26007KT 10SM FEW009 BKN040 BKN100 BKN250 19/17 A2992 RMK AO2 SLP132 T01890167
KEWR 231351Z 30009KT 10SM FEW009 SCT036 BKN100 BKN250 22/18 A2992 RMK AO2 SLP130 T02220178
KEWR 231451Z 34013KT 10SM SCT023 BKN060 BKN070 23/17 A2993 RMK AO2 SLP136 T02330172 53007
KEWR 231551Z 32015G21KT 10SM SCT028 BKN039 BKN090 23/14 A2994 RMK AO2 SLP139 T02330144
KEWR 231651Z 31011G17KT 10SM SCT030 BKN038 BKN090 25/15 A2995 RMK AO2 SLP140 T02500150
KEWR 231751Z 32007G19KT 10SM FEW035 SCT045 26/14 A2994 RMK AO2 SLP139 T02560144 10256 20167 50003
KEWR 231851Z COR 33004KT 10SM FEW048 SCT250 26/13 A2994 RMK AO2 SLP139 T02610133
KEWR 231951Z 32014G22KT 10SM FEW060 SCT250 27/12 A2994 RMK AO2 SLP136 T02720117
KEWR 232051Z 32011G19KT 10SM FEW060 SCT250 27/11 A2993 RMK AO2 SLP135 T02720111 58005
KEWR 232151Z 32009G17KT 10SM FEW060 SCT250 28/11 A2993 RMK AO2 SLP136 T02780106



Page loaded:  22:17 UTC  |   03:17 PM Pacific  |   04:17 PM Mountain  |   05:17 PM Central  |   06:17 PM Eastern

 

ADVISORIES

FORECASTS

FORECASTS

OBSERVATIONS

USER TOOLS

ABOUT US